createdAt,value
2018-12-29T00:00:58.398Z,17.43
2018-12-29T00:06:03.524Z,16.70
2018-12-29T00:11:08.988Z,18.03
2018-12-29T00:16:15.210Z,18.33
2018-12-29T00:21:20.288Z,18.17
2018-12-29T00:26:25.304Z,19.60
2018-12-29T00:31:30.634Z,20.10
2018-12-29T00:36:37.017Z,17.43
2018-12-29T00:41:41.944Z,17.80
2018-12-29T00:46:49.280Z,18.00
2018-12-29T00:51:54.209Z,17.77
2018-12-29T00:57:02.777Z,16.53
2018-12-29T01:02:07.382Z,17.87
2018-12-29T01:07:12.749Z,16.50
2018-12-29T01:12:20.440Z,19.13
2018-12-29T01:17:25.312Z,17.43
2018-12-29T01:22:33.079Z,16.27
2018-12-29T01:27:38.748Z,18.43
2018-12-29T01:32:48.955Z,18.17
2018-12-29T01:37:53.634Z,15.90
2018-12-29T01:42:59.394Z,16.77
2018-12-29T01:48:05.059Z,16.13
2018-12-29T01:53:09.742Z,18.27
2018-12-29T01:58:14.727Z,15.60
2018-12-29T02:03:19.994Z,17.37
2018-12-29T02:08:24.895Z,19.13
2018-12-29T02:13:29.255Z,16.63
2018-12-29T02:18:34.025Z,16.20
2018-12-29T02:23:39.255Z,18.17
2018-12-29T02:28:47.850Z,15.67
2018-12-29T02:33:53.037Z,16.33
2018-12-29T02:38:58.602Z,17.40
2018-12-29T02:44:03.851Z,16.27
2018-12-29T02:49:13.372Z,18.27
2018-12-29T02:54:18.176Z,15.77
2018-12-29T02:59:22.736Z,15.67
2018-12-29T03:04:30.351Z,14.23
2018-12-29T03:09:36.060Z,15.83
2018-12-29T03:14:41.474Z,15.73
2018-12-29T03:19:46.789Z,15.08
2018-12-29T03:24:51.404Z,15.57
2018-12-29T03:29:57.770Z,17.12
2018-12-29T03:35:02.080Z,14.93
2018-12-29T03:40:07.792Z,15.97
2018-12-29T03:45:13.334Z,15.80
2018-12-29T03:50:18.505Z,15.60
2018-12-29T03:55:24.103Z,15.13
2018-12-29T04:00:28.402Z,19.07
2018-12-29T04:05:33.638Z,15.93
2018-12-29T04:10:38.328Z,15.00
2018-12-29T04:15:45.106Z,16.63
2018-12-29T04:20:50.183Z,15.83
2018-12-29T04:25:54.819Z,14.60
2018-12-29T04:31:01.390Z,14.37
2018-12-29T04:36:08.837Z,15.93
2018-12-29T04:41:15.795Z,16.20
2018-12-29T04:46:21.202Z,16.40
2018-12-29T04:51:25.893Z,15.43
2018-12-29T04:56:31.707Z,17.02
2018-12-29T05:01:38.205Z,16.73
2018-12-29T05:06:42.769Z,16.50
2018-12-29T05:11:50.819Z,14.57
2018-12-29T05:16:56.627Z,15.70
2018-12-29T05:22:00.907Z,16.13
2018-12-29T05:27:07.598Z,15.03
2018-12-29T05:32:15.520Z,15.43
2018-12-29T05:37:22.321Z,15.20
2018-12-29T05:42:26.893Z,15.20
2018-12-29T05:47:31.819Z,17.15
2018-12-29T05:52:36.860Z,15.10
2018-12-29T05:57:41.868Z,15.03
2018-12-29T06:02:48.688Z,16.43
2018-12-29T06:07:56.414Z,16.63
2018-12-29T06:13:01.643Z,14.50
2018-12-29T06:18:06.774Z,16.47
2018-12-29T06:23:11.785Z,15.27
2018-12-29T06:28:17.671Z,15.27
2018-12-29T06:33:24.521Z,16.60
2018-12-29T06:38:31.297Z,16.23
2018-12-29T06:43:37.061Z,16.10
2018-12-29T06:48:42.330Z,15.60
2018-12-29T06:53:46.669Z,15.07
2018-12-29T06:58:52.170Z,17.77
2018-12-29T07:03:56.652Z,16.60
2018-12-29T07:09:01.202Z,15.80
2018-12-29T07:14:05.901Z,14.90
2018-12-29T07:19:11.780Z,15.30
2018-12-29T07:24:16.981Z,15.53
2018-12-29T07:29:25.086Z,15.07
2018-12-29T07:34:29.777Z,17.35
2018-12-29T07:39:34.606Z,16.87
2018-12-29T07:44:40.483Z,14.17
2018-12-29T07:49:47.142Z,16.57
2018-12-29T07:54:53.098Z,16.63
2018-12-29T07:59:59.055Z,15.50
2018-12-29T08:05:03.611Z,15.07
2018-12-29T08:10:10.889Z,17.20
2018-12-29T08:15:17.206Z,14.77
2018-12-29T08:20:22.600Z,15.75
2018-12-29T08:25:28.162Z,15.72
2018-12-29T08:30:34.746Z,15.93
2018-12-29T08:35:39.559Z,14.53
2018-12-29T08:40:44.143Z,15.88
2018-12-29T08:45:48.724Z,14.77
2018-12-29T08:50:53.688Z,14.70
2018-12-29T08:55:58.933Z,16.13
2018-12-29T09:01:03.566Z,15.40
2018-12-29T09:06:08.136Z,14.43
2018-12-29T09:11:16.810Z,14.60
2018-12-29T09:16:28.599Z,15.90
2018-12-29T09:21:39.797Z,15.43
2018-12-29T09:26:49.292Z,14.03
2018-12-29T09:32:00.650Z,15.00
2018-12-29T09:37:20.653Z,14.90
2018-12-29T09:42:32.039Z,15.78
2018-12-29T09:47:38.723Z,16.40
2018-12-29T09:52:47.036Z,15.73
2018-12-29T09:57:53.025Z,15.27
2018-12-29T10:02:57.930Z,16.57
2018-12-29T10:08:02.956Z,14.60
2018-12-29T10:13:10.280Z,15.10
2018-12-29T10:18:17.017Z,14.30
2018-12-29T10:23:22.172Z,13.90
2018-12-29T10:28:27.724Z,15.68
2018-12-29T10:33:32.753Z,15.50
2018-12-29T10:38:37.901Z,15.23
2018-12-29T10:43:42.260Z,16.23
2018-12-29T10:48:47.588Z,15.00
2018-12-29T10:53:54.974Z,15.90
2018-12-29T10:59:00.256Z,16.37
2018-12-29T11:04:04.963Z,16.73
2018-12-29T11:09:10.568Z,16.23
2018-12-29T11:14:15.324Z,17.17
2018-12-29T11:19:22.972Z,17.20
2018-12-29T11:24:28.773Z,15.93
2018-12-29T11:29:34.564Z,15.43
2018-12-29T11:34:40.159Z,15.33
2018-12-29T11:39:48.107Z,15.27
2018-12-29T11:44:53.301Z,15.03
2018-12-29T11:49:59.374Z,15.23
2018-12-29T11:55:05.857Z,13.47
2018-12-29T12:00:11.089Z,12.43
2018-12-29T12:05:15.979Z,12.97
2018-12-29T12:10:22.363Z,12.63
2018-12-29T12:15:28.309Z,12.77
2018-12-29T12:20:32.914Z,12.47
2018-12-29T12:25:39.011Z,11.97
2018-12-29T12:30:47.340Z,13.43
2018-12-29T12:35:52.971Z,12.93
2018-12-29T12:40:59.879Z,11.20
2018-12-29T12:46:04.505Z,13.67
2018-12-29T12:51:08.883Z,12.63
2018-12-29T12:56:13.937Z,13.20
2018-12-29T13:01:19.829Z,13.27
2018-12-29T13:06:24.804Z,13.77
2018-12-29T13:11:30.363Z,13.77
2018-12-29T13:16:36.155Z,12.50
2018-12-29T13:21:41.395Z,13.80
2018-12-29T13:26:45.765Z,13.23
2018-12-29T13:31:51.529Z,13.37
2018-12-29T13:37:00.764Z,12.73
2018-12-29T13:42:06.936Z,12.50
2018-12-29T13:47:11.879Z,12.37
2018-12-29T13:52:17.620Z,13.17
2018-12-29T13:57:22.888Z,13.53
2018-12-29T14:02:27.895Z,14.30
2018-12-29T14:07:32.939Z,13.10
2018-12-29T14:12:37.975Z,13.30
2018-12-29T14:17:43.764Z,12.90
2018-12-29T14:22:49.019Z,12.50
2018-12-29T14:27:54.193Z,12.13
2018-12-29T14:32:59.477Z,12.30
2018-12-29T14:38:04.008Z,12.43
2018-12-29T14:43:10.288Z,12.60
2018-12-29T14:48:15.833Z,13.00
2018-12-29T14:53:20.520Z,12.80
2018-12-29T14:58:25.133Z,14.10
2018-12-29T15:03:31.257Z,13.55
2018-12-29T15:08:39.180Z,13.60
2018-12-29T15:13:47.727Z,13.87
2018-12-29T15:18:56.698Z,12.87
2018-12-29T15:24:03.544Z,12.97
2018-12-29T15:29:08.487Z,12.18
2018-12-29T15:34:13.580Z,11.78
2018-12-29T15:39:18.783Z,12.73
2018-12-29T15:44:23.313Z,13.13
2018-12-29T15:49:30.341Z,13.03
2018-12-29T15:54:34.789Z,12.00
2018-12-29T15:59:39.174Z,13.97
2018-12-29T16:04:44.427Z,13.70
2018-12-29T16:09:49.671Z,13.53
2018-12-29T16:14:54.899Z,13.62
2018-12-29T16:19:59.668Z,14.67
2018-12-29T16:25:04.722Z,15.43
2018-12-29T16:30:10.079Z,15.57
2018-12-29T16:35:18.052Z,15.80
2018-12-29T16:40:23.254Z,15.17
2018-12-29T16:45:27.781Z,16.17
2018-12-29T16:50:33.222Z,16.57
2018-12-29T16:55:38.085Z,15.65
2018-12-29T17:00:43.504Z,15.80
2018-12-29T17:05:48.111Z,15.50
2018-12-29T17:10:52.497Z,16.30
2018-12-29T17:15:57.757Z,16.80
2018-12-29T17:21:02.478Z,16.27
2018-12-29T17:26:07.089Z,15.47
2018-12-29T17:31:12.673Z,14.40
2018-12-29T17:36:17.507Z,14.23
2018-12-29T17:41:22.046Z,14.53
2018-12-29T17:46:27.274Z,14.93
2018-12-29T17:51:32.235Z,14.37
2018-12-29T17:56:37.865Z,14.97
2018-12-29T18:01:43.102Z,13.73
2018-12-29T18:06:47.767Z,15.20
2018-12-29T18:11:53.025Z,14.60
2018-12-29T18:16:57.579Z,15.13
2018-12-29T18:22:02.281Z,14.00
2018-12-29T18:27:07.338Z,13.50
2018-12-29T18:32:13.412Z,13.13
2018-12-29T18:37:21.656Z,13.40
2018-12-29T18:42:29.557Z,13.13
2018-12-29T18:47:34.505Z,12.67
2018-12-29T18:52:40.118Z,11.73
2018-12-29T18:57:45.602Z,11.57
2018-12-29T19:02:50.388Z,11.77
2018-12-29T19:07:55.184Z,12.13
2018-12-29T19:13:00.119Z,12.37
2018-12-29T19:18:06.237Z,11.17
2018-12-29T19:23:11.585Z,11.53
2018-12-29T19:28:18.044Z,11.67
2018-12-29T19:33:23.108Z,10.53
2018-12-29T19:38:28.669Z,11.23
2018-12-29T19:43:33.876Z,10.87
2018-12-29T19:48:38.731Z,10.53
2018-12-29T19:53:43.120Z,11.60
2018-12-29T19:58:49.916Z,10.63
2018-12-29T20:03:55.212Z,10.70
2018-12-29T20:09:00.803Z,11.43
2018-12-29T20:14:08.000Z,11.95
2018-12-29T20:19:12.792Z,13.73
2018-12-29T20:24:17.795Z,13.07
2018-12-29T20:29:22.742Z,13.80
2018-12-29T20:34:28.841Z,13.97
2018-12-29T20:39:35.560Z,14.07
2018-12-29T20:44:40.682Z,14.20
2018-12-29T20:49:45.521Z,15.43
2018-12-29T20:54:50.702Z,14.77
2018-12-29T20:59:55.626Z,16.77
2018-12-29T21:05:02.852Z,18.00
2018-12-29T21:10:07.670Z,16.53
2018-12-29T21:15:13.567Z,17.07
2018-12-29T21:20:19.011Z,16.90
2018-12-29T21:25:23.553Z,15.93
2018-12-29T21:30:30.861Z,15.13
2018-12-29T21:35:35.548Z,15.00
2018-12-29T21:40:39.960Z,12.47
2018-12-29T21:45:47.732Z,12.85
2018-12-29T21:50:52.315Z,12.03
2018-12-29T21:55:56.702Z,11.67
2018-12-29T22:01:03.339Z,11.83
2018-12-29T22:06:07.765Z,10.57
2018-12-29T22:11:13.139Z,10.70
2018-12-29T22:16:19.214Z,10.60
2018-12-29T22:21:24.232Z,9.03
2018-12-29T22:26:30.219Z,9.33
2018-12-29T22:31:39.395Z,8.50
2018-12-29T22:36:47.005Z,8.27
2018-12-29T22:41:52.420Z,6.80
2018-12-29T22:46:57.885Z,8.53
2018-12-29T22:52:07.862Z,7.27
2018-12-29T22:57:12.820Z,7.30
2018-12-29T23:02:17.715Z,7.00
2018-12-29T23:07:22.743Z,6.27
2018-12-29T23:12:27.108Z,6.37
2018-12-29T23:17:32.634Z,7.03
2018-12-29T23:22:38.037Z,6.73
2018-12-29T23:27:43.136Z,6.47
2018-12-29T23:32:48.812Z,5.93
2018-12-29T23:37:54.110Z,5.73
2018-12-29T23:43:02.129Z,5.30
2018-12-29T23:48:08.356Z,6.10
2018-12-29T23:53:13.914Z,4.93
2018-12-29T23:58:19.184Z,5.83
